sensor_id;sensor_type;location;lat;lon;timestamp;temperature;humidity
6355;DHT22;3210;48.708;9.030;2023-05-10T00:01:35;13.50;99.90
6355;DHT22;3210;48.708;9.030;2023-05-10T00:04:01;13.40;99.90
6355;DHT22;3210;48.708;9.030;2023-05-10T00:06:30;13.20;93.70
6355;DHT22;3210;48.708;9.030;2023-05-10T00:08:57;13.20;99.90
6355;DHT22;3210;48.708;9.030;2023-05-10T00:11:23;13.00;1.00
6355;DHT22;3210;48.708;9.030;2023-05-10T00:13:50;12.90;1.00
6355;DHT22;3210;48.708;9.030;2023-05-10T00:16:20;12.80;1.00
6355;DHT22;3210;48.708;9.030;2023-05-10T00:18:47;12.60;1.00
6355;DHT22;3210;48.708;9.030;2023-05-10T00:21:13;12.70;44.60
6355;DHT22;3210;48.708;9.030;2023-05-10T00:23:42;12.50;95.70
6355;DHT22;3210;48.708;9.030;2023-05-10T00:26:08;12.70;99.90
6355;DHT22;3210;48.708;9.030;2023-05-10T00:28:35;12.50;99.90
6355;DHT22;3210;48.708;9.030;2023-05-10T00:31:02;12.50;99.90
6355;DHT22;3210;48.708;9.030;2023-05-10T00:33:29;12.50;97.40
6355;DHT22;3210;48.708;9.030;2023-05-10T00:35:56;12.50;99.90
6355;DHT22;3210;48.708;9.030;2023-05-10T00:38:23;12.40;99.90
6355;DHT22;3210;48.708;9.030;2023-05-10T00:40:51;12.40;99.90
6355;DHT22;3210;48.708;9.030;2023-05-10T00:43:18;12.40;70.30
6355;DHT22;3210;48.708;9.030;2023-05-10T00:45:44;12.40;99.90
6355;DHT22;3210;48.708;9.030;2023-05-10T00:48:12;12.40;99.90
6355;DHT22;3210;48.708;9.030;2023-05-10T00:50:39;12.40;99.90
6355;DHT22;3210;48.708;9.030;2023-05-10T00:53:06;12.40;99.90
6355;DHT22;3210;48.708;9.030;2023-05-10T00:55:33;12.50;99.90
6355;DHT22;3210;48.708;9.030;2023-05-10T00:58:02;12.50;99.90
6355;DHT22;3210;48.708;9.030;2023-05-10T01:00:28;12.50;99.90
6355;DHT22;3210;48.708;9.030;2023-05-10T01:02:55;12.40;99.90
6355;DHT22;3210;48.708;9.030;2023-05-10T01:05:22;12.40;99.90
6355;DHT22;3210;48.708;9.030;2023-05-10T01:07:49;12.40;99.90
6355;DHT22;3210;48.708;9.030;2023-05-10T01:10:16;12.40;99.90
6355;DHT22;3210;48.708;9.030;2023-05-10T01:12:45;12.40;99.90
6355;DHT22;3210;48.708;9.030;2023-05-10T01:15:15;12.50;1.00
6355;DHT22;3210;48.708;9.030;2023-05-10T01:17:44;12.40;13.40
6355;DHT22;3210;48.708;9.030;2023-05-10T01:20:12;12.40;99.90
6355;DHT22;3210;48.708;9.030;2023-05-10T01:23:10;12.40;99.90
6355;DHT22;3210;48.708;9.030;2023-05-10T01:26:13;12.40;99.90
6355;DHT22;3210;48.708;9.030;2023-05-10T01:29:14;12.40;99.90
6355;DHT22;3210;48.708;9.030;2023-05-10T01:32:13;12.40;99.90
6355;DHT22;3210;48.708;9.030;2023-05-10T01:34:47;12.40;99.90
6355;DHT22;3210;48.708;9.030;2023-05-10T01:37:20;12.40;99.90
6355;DHT22;3210;48.708;9.030;2023-05-10T01:39:52;12.40;99.90
6355;DHT22;3210;48.708;9.030;2023-05-10T01:42:25;12.30;99.90
6355;DHT22;3210;48.708;9.030;2023-05-10T01:44:56;12.40;99.90
6355;DHT22;3210;48.708;9.030;2023-05-10T01:47:32;12.40;99.90
6355;DHT22;3210;48.708;9.030;2023-05-10T01:50:03;12.40;99.90
6355;DHT22;3210;48.708;9.030;2023-05-10T01:52:33;12.30;99.90
6355;DHT22;3210;48.708;9.030;2023-05-10T01:55:05;12.30;99.90
6355;DHT22;3210;48.708;9.030;2023-05-10T01:57:34;12.30;99.90
6355;DHT22;3210;48.708;9.030;2023-05-10T02:00:03;12.30;99.90
6355;DHT22;3210;48.708;9.030;2023-05-10T02:02:34;12.40;99.90
6355;DHT22;3210;48.708;9.030;2023-05-10T02:05:03;12.40;99.90
6355;DHT22;3210;48.708;9.030;2023-05-10T02:07:32;12.40;99.90
6355;DHT22;3210;48.708;9.030;2023-05-10T02:10:01;12.30;99.90
6355;DHT22;3210;48.708;9.030;2023-05-10T02:12:29;12.30;99.90
6355;DHT22;3210;48.708;9.030;2023-05-10T02:14:57;12.20;99.90
6355;DHT22;3210;48.708;9.030;2023-05-10T02:17:26;12.30;99.90
6355;DHT22;3210;48.708;9.030;2023-05-10T02:19:56;12.30;99.90
6355;DHT22;3210;48.708;9.030;2023-05-10T02:22:25;12.30;99.90
6355;DHT22;3210;48.708;9.030;2023-05-10T02:24:53;12.20;99.90
6355;DHT22;3210;48.708;9.030;2023-05-10T02:27:20;12.20;99.90
6355;DHT22;3210;48.708;9.030;2023-05-10T02:29:49;12.20;99.90
6355;DHT22;3210;48.708;9.030;2023-05-10T02:32:17;12.20;99.90
6355;DHT22;3210;48.708;9.030;2023-05-10T02:34:46;12.20;99.90
6355;DHT22;3210;48.708;9.030;2023-05-10T02:37:19;12.30;99.90
6355;DHT22;3210;48.708;9.030;2023-05-10T02:39:47;12.30;99.90
6355;DHT22;3210;48.708;9.030;2023-05-10T02:42:17;12.30;99.90
6355;DHT22;3210;48.708;9.030;2023-05-10T02:44:47;12.20;99.90
6355;DHT22;3210;48.708;9.030;2023-05-10T02:47:14;12.20;99.90
6355;DHT22;3210;48.708;9.030;2023-05-10T02:49:41;12.20;99.90
6355;DHT22;3210;48.708;9.030;2023-05-10T02:52:08;12.30;99.90
6355;DHT22;3210;48.708;9.030;2023-05-10T02:54:41;12.30;99.90
6355;DHT22;3210;48.708;9.030;2023-05-10T02:57:14;12.20;99.90
6355;DHT22;3210;48.708;9.030;2023-05-10T02:59:43;12.30;99.90
6355;DHT22;3210;48.708;9.030;2023-05-10T03:02:11;12.20;99.90
6355;DHT22;3210;48.708;9.030;2023-05-10T03:04:38;12.20;99.90
6355;DHT22;3210;48.708;9.030;2023-05-10T03:07:05;12.20;99.90
6355;DHT22;3210;48.708;9.030;2023-05-10T03:09:32;12.20;99.90
6355;DHT22;3210;48.708;9.030;2023-05-10T03:12:07;12.20;99.90
6355;DHT22;3210;48.708;9.030;2023-05-10T03:14:45;12.30;99.90
6355;DHT22;3210;48.708;9.030;2023-05-10T03:17:19;12.30;99.90
6355;DHT22;3210;48.708;9.030;2023-05-10T03:19:54;12.30;99.90
6355;DHT22;3210;48.708;9.030;2023-05-10T03:22:25;12.30;99.90
6355;DHT22;3210;48.708;9.030;2023-05-10T03:24:55;12.30;99.90
6355;DHT22;3210;48.708;9.030;2023-05-10T03:27:26;12.30;99.90
6355;DHT22;3210;48.708;9.030;2023-05-10T03:29:53;12.30;99.90
6355;DHT22;3210;48.708;9.030;2023-05-10T03:32:21;12.40;66.80
6355;DHT22;3210;48.708;9.030;2023-05-10T03:34:48;12.30;13.00
6355;DHT22;3210;48.708;9.030;2023-05-10T03:37:15;12.50;1.00
6355;DHT22;3210;48.708;9.030;2023-05-10T03:39:42;12.40;1.00
6355;DHT22;3210;48.708;9.030;2023-05-10T03:42:08;12.40;1.00
6355;DHT22;3210;48.708;9.030;2023-05-10T03:44:38;12.30;16.70
6355;DHT22;3210;48.708;9.030;2023-05-10T03:47:05;12.30;99.90
6355;DHT22;3210;48.708;9.030;2023-05-10T03:49:32;12.40;99.90
6355;DHT22;3210;48.708;9.030;2023-05-10T03:51:59;12.30;99.90
6355;DHT22;3210;48.708;9.030;2023-05-10T03:54:25;12.30;99.90
6355;DHT22;3210;48.708;9.030;2023-05-10T03:56:52;12.30;99.90
6355;DHT22;3210;48.708;9.030;2023-05-10T03:59:19;12.30;99.90
6355;DHT22;3210;48.708;9.030;2023-05-10T04:01:47;12.20;99.90
6355;DHT22;3210;48.708;9.030;2023-05-10T04:04:14;12.30;99.90
6355;DHT22;3210;48.708;9.030;2023-05-10T04:06:41;12.30;99.90
6355;DHT22;3210;48.708;9.030;2023-05-10T04:09:07;12.30;99.90
6355;DHT22;3210;48.708;9.030;2023-05-10T04:11:34;12.30;99.90
6355;DHT22;3210;48.708;9.030;2023-05-10T04:14:01;12.20;99.90
6355;DHT22;3210;48.708;9.030;2023-05-10T04:16:28;12.20;99.90
6355;DHT22;3210;48.708;9.030;2023-05-10T04:18:59;12.20;99.90
6355;DHT22;3210;48.708;9.030;2023-05-10T04:21:26;12.20;99.90
6355;DHT22;3210;48.708;9.030;2023-05-10T04:23:53;12.10;99.90
6355;DHT22;3210;48.708;9.030;2023-05-10T04:26:20;12.10;99.90
6355;DHT22;3210;48.708;9.030;2023-05-10T04:28:47;12.20;99.90
6355;DHT22;3210;48.708;9.030;2023-05-10T04:31:14;12.10;99.90
6355;DHT22;3210;48.708;9.030;2023-05-10T04:33:41;12.10;99.90
6355;DHT22;3210;48.708;9.030;2023-05-10T04:36:09;12.10;99.90
6355;DHT22;3210;48.708;9.030;2023-05-10T04:38:36;12.10;99.90
6355;DHT22;3210;48.708;9.030;2023-05-10T04:41:06;12.00;99.90
6355;DHT22;3210;48.708;9.030;2023-05-10T04:43:33;12.20;99.90
6355;DHT22;3210;48.708;9.030;2023-05-10T04:46:00;12.20;99.90
6355;DHT22;3210;48.708;9.030;2023-05-10T04:48:27;12.30;99.90
6355;DHT22;3210;48.708;9.030;2023-05-10T04:50:54;12.30;99.90
6355;DHT22;3210;48.708;9.030;2023-05-10T04:53:23;12.30;99.90
6355;DHT22;3210;48.708;9.030;2023-05-10T04:55:50;12.20;99.90
6355;DHT22;3210;48.708;9.030;2023-05-10T04:58:16;12.40;99.90
6355;DHT22;3210;48.708;9.030;2023-05-10T05:00:43;12.30;99.90
6355;DHT22;3210;48.708;9.030;2023-05-10T05:03:10;12.40;99.90
6355;DHT22;3210;48.708;9.030;2023-05-10T05:05:37;12.40;99.90
6355;DHT22;3210;48.708;9.030;2023-05-10T05:08:04;12.40;99.90
6355;DHT22;3210;48.708;9.030;2023-05-10T05:10:32;12.50;99.90
6355;DHT22;3210;48.708;9.030;2023-05-10T05:12:59;12.50;99.90
6355;DHT22;3210;48.708;9.030;2023-05-10T05:15:26;12.40;99.90
6355;DHT22;3210;48.708;9.030;2023-05-10T05:17:53;12.50;99.90
6355;DHT22;3210;48.708;9.030;2023-05-10T05:20:20;12.60;99.90
6355;DHT22;3210;48.708;9.030;2023-05-10T05:22:46;12.60;99.90
6355;DHT22;3210;48.708;9.030;2023-05-10T05:25:13;12.70;27.50
6355;DHT22;3210;48.708;9.030;2023-05-10T05:27:42;12.70;13.10
6355;DHT22;3210;48.708;9.030;2023-05-10T05:30:09;12.70;9.40
6355;DHT22;3210;48.708;9.030;2023-05-10T05:32:36;12.60;28.60
6355;DHT22;3210;48.708;9.030;2023-05-10T05:35:04;12.70;29.20
6355;DHT22;3210;48.708;9.030;2023-05-10T05:37:31;12.70;27.90
6355;DHT22;3210;48.708;9.030;2023-05-10T05:39:58;12.80;23.50
6355;DHT22;3210;48.708;9.030;2023-05-10T05:42:26;12.80;1.00
6355;DHT22;3210;48.708;9.030;2023-05-10T05:44:54;12.70;1.00
6355;DHT22;3210;48.708;9.030;2023-05-10T05:47:21;12.80;8.00
6355;DHT22;3210;48.708;9.030;2023-05-10T05:49:48;12.90;1.00
6355;DHT22;3210;48.708;9.030;2023-05-10T05:52:15;13.00;1.00
6355;DHT22;3210;48.708;9.030;2023-05-10T05:54:42;12.90;1.00
6355;DHT22;3210;48.708;9.030;2023-05-10T05:57:09;13.00;1.00
6355;DHT22;3210;48.708;9.030;2023-05-10T05:59:36;13.00;1.00
6355;DHT22;3210;48.708;9.030;2023-05-10T06:02:08;13.10;1.00
6355;DHT22;3210;48.708;9.030;2023-05-10T06:04:35;13.10;1.00
6355;DHT22;3210;48.708;9.030;2023-05-10T06:07:02;13.10;1.00
6355;DHT22;3210;48.708;9.030;2023-05-10T06:09:31;13.20;1.00
6355;DHT22;3210;48.708;9.030;2023-05-10T06:11:58;13.30;1.00
6355;DHT22;3210;48.708;9.030;2023-05-10T06:14:24;13.10;1.00
6355;DHT22;3210;48.708;9.030;2023-05-10T06:16:51;13.20;1.00
6355;DHT22;3210;48.708;9.030;2023-05-10T06:19:19;13.10;1.00
6355;DHT22;3210;48.708;9.030;2023-05-10T06:21:46;13.20;1.00
6355;DHT22;3210;48.708;9.030;2023-05-10T06:24:13;13.10;1.00
6355;DHT22;3210;48.708;9.030;2023-05-10T06:26:40;13.10;1.00
6355;DHT22;3210;48.708;9.030;2023-05-10T06:29:06;13.10;1.00
6355;DHT22;3210;48.708;9.030;2023-05-10T06:31:33;13.10;1.00
6355;DHT22;3210;48.708;9.030;2023-05-10T06:34:00;13.20;1.00
6355;DHT22;3210;48.708;9.030;2023-05-10T06:36:28;13.20;1.00
6355;DHT22;3210;48.708;9.030;2023-05-10T06:38:56;13.30;1.00
6355;DHT22;3210;48.708;9.030;2023-05-10T06:41:23;13.30;1.00
6355;DHT22;3210;48.708;9.030;2023-05-10T06:43:51;13.10;1.00
6355;DHT22;3210;48.708;9.030;2023-05-10T06:46:18;13.20;1.00
6355;DHT22;3210;48.708;9.030;2023-05-10T06:48:44;13.20;1.00
6355;DHT22;3210;48.708;9.030;2023-05-10T06:51:11;13.30;1.00
6355;DHT22;3210;48.708;9.030;2023-05-10T06:53:39;13.40;1.00
6355;DHT22;3210;48.708;9.030;2023-05-10T06:56:06;13.30;1.00
6355;DHT22;3210;48.708;9.030;2023-05-10T06:58:33;13.40;1.00
6355;DHT22;3210;48.708;9.030;2023-05-10T07:01:03;13.50;1.00
6355;DHT22;3210;48.708;9.030;2023-05-10T07:03:30;13.50;99.90
6355;DHT22;3210;48.708;9.030;2023-05-10T07:06:00;13.50;99.90
6355;DHT22;3210;48.708;9.030;2023-05-10T07:08:29;13.60;1.00
6355;DHT22;3210;48.708;9.030;2023-05-10T07:11:01;13.70;1.00
6355;DHT22;3210;48.708;9.030;2023-05-10T07:13:29;13.80;1.00
6355;DHT22;3210;48.708;9.030;2023-05-10T07:15:56;13.90;1.00
6355;DHT22;3210;48.708;9.030;2023-05-10T07:18:23;14.00;99.90
6355;DHT22;3210;48.708;9.030;2023-05-10T07:20:50;14.10;99.90
6355;DHT22;3210;48.708;9.030;2023-05-10T07:23:17;14.20;99.90
6355;DHT22;3210;48.708;9.030;2023-05-10T07:25:45;14.10;99.90
6355;DHT22;3210;48.708;9.030;2023-05-10T07:28:14;14.20;99.90
6355;DHT22;3210;48.708;9.030;2023-05-10T07:30:42;14.20;99.90
6355;DHT22;3210;48.708;9.030;2023-05-10T07:33:09;14.30;99.90
6355;DHT22;3210;48.708;9.030;2023-05-10T07:35:36;14.30;99.90
6355;DHT22;3210;48.708;9.030;2023-05-10T07:38:03;14.40;99.90
6355;DHT22;3210;48.708;9.030;2023-05-10T07:40:30;14.30;99.90
6355;DHT22;3210;48.708;9.030;2023-05-10T07:42:57;14.40;99.90
6355;DHT22;3210;48.708;9.030;2023-05-10T07:45:26;14.40;99.90
6355;DHT22;3210;48.708;9.030;2023-05-10T07:47:53;14.40;99.90
6355;DHT22;3210;48.708;9.030;2023-05-10T07:50:20;14.40;99.90
6355;DHT22;3210;48.708;9.030;2023-05-10T07:52:47;14.40;99.90
6355;DHT22;3210;48.708;9.030;2023-05-10T07:55:14;14.40;99.90
6355;DHT22;3210;48.708;9.030;2023-05-10T07:57:42;14.50;99.90
6355;DHT22;3210;48.708;9.030;2023-05-10T08:00:11;14.70;99.90
6355;DHT22;3210;48.708;9.030;2023-05-10T08:02:40;14.70;99.90
6355;DHT22;3210;48.708;9.030;2023-05-10T08:05:07;14.70;99.90
6355;DHT22;3210;48.708;9.030;2023-05-10T08:07:35;14.60;99.90
6355;DHT22;3210;48.708;9.030;2023-05-10T08:10:02;14.70;99.90
6355;DHT22;3210;48.708;9.030;2023-05-10T08:12:28;14.70;99.90
6355;DHT22;3210;48.708;9.030;2023-05-10T08:14:55;14.70;99.90
6355;DHT22;3210;48.708;9.030;2023-05-10T08:17:22;14.70;99.90
6355;DHT22;3210;48.708;9.030;2023-05-10T08:19:50;14.80;99.90
6355;DHT22;3210;48.708;9.030;2023-05-10T08:22:17;14.80;99.90
6355;DHT22;3210;48.708;9.030;2023-05-10T08:24:44;14.70;99.90
6355;DHT22;3210;48.708;9.030;2023-05-10T08:27:10;14.70;99.90
6355;DHT22;3210;48.708;9.030;2023-05-10T08:29:38;14.70;99.90
6355;DHT22;3210;48.708;9.030;2023-05-10T08:32:04;14.80;99.90
6355;DHT22;3210;48.708;9.030;2023-05-10T08:34:31;14.90;99.90
6355;DHT22;3210;48.708;9.030;2023-05-10T08:36:59;14.90;97.60
6355;DHT22;3210;48.708;9.030;2023-05-10T08:39:26;14.80;98.40
6355;DHT22;3210;48.708;9.030;2023-05-10T08:41:54;14.80;99.90
6355;DHT22;3210;48.708;9.030;2023-05-10T08:44:25;14.90;92.40
6355;DHT22;3210;48.708;9.030;2023-05-10T08:46:53;14.90;92.10
6355;DHT22;3210;48.708;9.030;2023-05-10T08:49:21;15.00;93.60
6355;DHT22;3210;48.708;9.030;2023-05-10T08:51:52;15.00;97.20
6355;DHT22;3210;48.708;9.030;2023-05-10T08:54:22;15.20;48.00
6355;DHT22;3210;48.708;9.030;2023-05-10T08:56:49;15.30;72.20
6355;DHT22;3210;48.708;9.030;2023-05-10T08:59:16;15.30;56.20
6355;DHT22;3210;48.708;9.030;2023-05-10T09:01:44;15.40;53.60
6355;DHT22;3210;48.708;9.030;2023-05-10T09:04:12;15.40;47.80
6355;DHT22;3210;48.708;9.030;2023-05-10T09:06:39;15.40;45.80
6355;DHT22;3210;48.708;9.030;2023-05-10T09:09:06;15.20;24.20
6355;DHT22;3210;48.708;9.030;2023-05-10T09:11:34;15.20;40.60
6355;DHT22;3210;48.708;9.030;2023-05-10T09:14:01;15.20;36.00
6355;DHT22;3210;48.708;9.030;2023-05-10T09:16:28;15.20;48.30
6355;DHT22;3210;48.708;9.030;2023-05-10T09:18:56;15.20;29.10
6355;DHT22;3210;48.708;9.030;2023-05-10T09:21:22;15.00;38.30
6355;DHT22;3210;48.708;9.030;2023-05-10T09:23:49;14.90;20.70
6355;DHT22;3210;48.708;9.030;2023-05-10T09:26:17;15.00;30.00
6355;DHT22;3210;48.708;9.030;2023-05-10T09:28:53;15.10;22.80
6355;DHT22;3210;48.708;9.030;2023-05-10T09:31:21;15.30;13.60
6355;DHT22;3210;48.708;9.030;2023-05-10T09:33:48;15.40;32.00
6355;DHT22;3210;48.708;9.030;2023-05-10T09:36:16;15.50;20.20
6355;DHT22;3210;48.708;9.030;2023-05-10T09:38:46;15.70;22.30
6355;DHT22;3210;48.708;9.030;2023-05-10T09:41:18;15.70;9.20
6355;DHT22;3210;48.708;9.030;2023-05-10T09:43:46;15.80;6.30
6355;DHT22;3210;48.708;9.030;2023-05-10T09:46:15;15.90;15.40
6355;DHT22;3210;48.708;9.030;2023-05-10T09:48:44;16.00;10.30
6355;DHT22;3210;48.708;9.030;2023-05-10T09:51:16;16.30;13.30
6355;DHT22;3210;48.708;9.030;2023-05-10T09:53:44;16.50;3.20
6355;DHT22;3210;48.708;9.030;2023-05-10T09:56:11;16.70;1.00
6355;DHT22;3210;48.708;9.030;2023-05-10T09:58:39;16.70;1.00
6355;DHT22;3210;48.708;9.030;2023-05-10T10:01:10;16.50;1.00
6355;DHT22;3210;48.708;9.030;2023-05-10T10:03:42;16.50;1.00
6355;DHT22;3210;48.708;9.030;2023-05-10T10:06:09;16.60;1.00
6355;DHT22;3210;48.708;9.030;2023-05-10T10:08:36;16.70;1.00
6355;DHT22;3210;48.708;9.030;2023-05-10T10:11:03;16.80;1.00
6355;DHT22;3210;48.708;9.030;2023-05-10T10:13:30;16.90;1.00
6355;DHT22;3210;48.708;9.030;2023-05-10T10:15:58;17.00;1.00
6355;DHT22;3210;48.708;9.030;2023-05-10T10:18:25;17.10;1.00
6355;DHT22;3210;48.708;9.030;2023-05-10T10:20:56;17.10;1.00
6355;DHT22;3210;48.708;9.030;2023-05-10T10:23:23;17.00;1.00
6355;DHT22;3210;48.708;9.030;2023-05-10T10:25:50;17.10;1.00
6355;DHT22;3210;48.708;9.030;2023-05-10T10:28:24;17.20;1.00
6355;DHT22;3210;48.708;9.030;2023-05-10T10:30:53;17.10;1.00
6355;DHT22;3210;48.708;9.030;2023-05-10T10:33:36;16.90;1.00
6355;DHT22;3210;48.708;9.030;2023-05-10T10:36:07;16.80;1.00
6355;DHT22;3210;48.708;9.030;2023-05-10T10:41:31;17.20;1.00
6355;DHT22;3210;48.708;9.030;2023-05-10T10:44:23;17.00;1.00
6355;DHT22;3210;48.708;9.030;2023-05-10T10:47:00;16.40;1.00
6355;DHT22;3210;48.708;9.030;2023-05-10T10:49:28;16.00;1.00
6355;DHT22;3210;48.708;9.030;2023-05-10T10:52:22;15.70;1.00
6355;DHT22;3210;48.708;9.030;2023-05-10T10:54:53;15.40;1.00
6355;DHT22;3210;48.708;9.030;2023-05-10T10:57:23;15.30;1.00
6355;DHT22;3210;48.708;9.030;2023-05-10T10:59:53;15.10;1.00
6355;DHT22;3210;48.708;9.030;2023-05-10T11:02:42;14.80;1.00
6355;DHT22;3210;48.708;9.030;2023-05-10T11:08:17;14.50;1.00
6355;DHT22;3210;48.708;9.030;2023-05-10T11:11:02;14.40;1.00
6355;DHT22;3210;48.708;9.030;2023-05-10T11:13:33;14.40;1.00
6355;DHT22;3210;48.708;9.030;2023-05-10T11:16:14;14.50;1.00
6355;DHT22;3210;48.708;9.030;2023-05-10T11:18:52;14.60;1.00
6355;DHT22;3210;48.708;9.030;2023-05-10T11:21:19;14.70;1.00
6355;DHT22;3210;48.708;9.030;2023-05-10T11:23:52;14.60;1.00
6355;DHT22;3210;48.708;9.030;2023-05-10T11:26:21;14.50;1.00
6355;DHT22;3210;48.708;9.030;2023-05-10T11:28:52;14.50;1.00
6355;DHT22;3210;48.708;9.030;2023-05-10T11:31:20;14.40;1.00
6355;DHT22;3210;48.708;9.030;2023-05-10T11:33:48;14.50;1.00
6355;DHT22;3210;48.708;9.030;2023-05-10T11:36:16;14.50;1.00
6355;DHT22;3210;48.708;9.030;2023-05-10T11:38:44;14.50;1.00
6355;DHT22;3210;48.708;9.030;2023-05-10T11:41:12;14.30;1.00
6355;DHT22;3210;48.708;9.030;2023-05-10T11:43:40;14.50;1.00
6355;DHT22;3210;48.708;9.030;2023-05-10T11:46:08;14.70;1.00
6355;DHT22;3210;48.708;9.030;2023-05-10T11:48:36;15.00;1.00
6355;DHT22;3210;48.708;9.030;2023-05-10T11:51:03;15.10;1.00
6355;DHT22;3210;48.708;9.030;2023-05-10T11:53:31;15.30;1.00
6355;DHT22;3210;48.708;9.030;2023-05-10T11:56:03;15.60;1.00
6355;DHT22;3210;48.708;9.030;2023-05-10T11:58:32;15.70;1.00
6355;DHT22;3210;48.708;9.030;2023-05-10T12:00:59;15.90;1.00
6355;DHT22;3210;48.708;9.030;2023-05-10T12:03:26;15.80;1.00
6355;DHT22;3210;48.708;9.030;2023-05-10T12:05:54;15.90;1.00
6355;DHT22;3210;48.708;9.030;2023-05-10T12:08:22;16.00;1.00
6355;DHT22;3210;48.708;9.030;2023-05-10T12:10:49;16.30;1.00
6355;DHT22;3210;48.708;9.030;2023-05-10T12:13:17;16.30;1.00
6355;DHT22;3210;48.708;9.030;2023-05-10T12:15:45;16.40;1.00
6355;DHT22;3210;48.708;9.030;2023-05-10T12:18:13;16.40;1.00
6355;DHT22;3210;48.708;9.030;2023-05-10T12:20:40;16.20;1.00
6355;DHT22;3210;48.708;9.030;2023-05-10T12:23:09;16.10;1.00
6355;DHT22;3210;48.708;9.030;2023-05-10T12:25:37;15.90;1.00
6355;DHT22;3210;48.708;9.030;2023-05-10T12:28:05;15.70;1.00
6355;DHT22;3210;48.708;9.030;2023-05-10T12:30:33;15.90;1.00
6355;DHT22;3210;48.708;9.030;2023-05-10T12:33:06;15.70;1.00
6355;DHT22;3210;48.708;9.030;2023-05-10T12:35:42;15.70;1.00
6355;DHT22;3210;48.708;9.030;2023-05-10T12:38:24;15.50;1.00
6355;DHT22;3210;48.708;9.030;2023-05-10T12:40:51;15.40;1.00
6355;DHT22;3210;48.708;9.030;2023-05-10T12:43:18;15.30;1.00
6355;DHT22;3210;48.708;9.030;2023-05-10T12:45:45;15.30;1.00
6355;DHT22;3210;48.708;9.030;2023-05-10T12:48:15;15.40;1.00
6355;DHT22;3210;48.708;9.030;2023-05-10T12:50:42;15.30;1.00
6355;DHT22;3210;48.708;9.030;2023-05-10T12:53:09;15.50;1.00
6355;DHT22;3210;48.708;9.030;2023-05-10T12:55:36;15.70;1.00
6355;DHT22;3210;48.708;9.030;2023-05-10T12:58:03;15.70;1.00
6355;DHT22;3210;48.708;9.030;2023-05-10T13:00:29;15.80;1.00
6355;DHT22;3210;48.708;9.030;2023-05-10T13:02:56;15.90;1.00
6355;DHT22;3210;48.708;9.030;2023-05-10T13:05:24;15.80;1.00
6355;DHT22;3210;48.708;9.030;2023-05-10T13:07:51;15.90;1.00
6355;DHT22;3210;48.708;9.030;2023-05-10T13:10:18;15.70;1.00
6355;DHT22;3210;48.708;9.030;2023-05-10T13:12:45;16.00;1.00
6355;DHT22;3210;48.708;9.030;2023-05-10T13:15:12;16.10;1.00
6355;DHT22;3210;48.708;9.030;2023-05-10T13:17:38;16.30;1.00
6355;DHT22;3210;48.708;9.030;2023-05-10T13:20:06;16.40;1.00
6355;DHT22;3210;48.708;9.030;2023-05-10T13:22:35;16.20;1.00
6355;DHT22;3210;48.708;9.030;2023-05-10T13:25:01;16.10;1.00
6355;DHT22;3210;48.708;9.030;2023-05-10T13:27:28;16.20;1.00
6355;DHT22;3210;48.708;9.030;2023-05-10T13:29:55;16.20;1.00
6355;DHT22;3210;48.708;9.030;2023-05-10T13:32:22;16.00;1.00
6355;DHT22;3210;48.708;9.030;2023-05-10T13:34:49;16.00;1.00
6355;DHT22;3210;48.708;9.030;2023-05-10T13:37:16;16.00;1.00
6355;DHT22;3210;48.708;9.030;2023-05-10T13:39:44;16.10;1.00
6355;DHT22;3210;48.708;9.030;2023-05-10T13:42:11;16.30;1.00
6355;DHT22;3210;48.708;9.030;2023-05-10T13:44:38;16.30;1.00
6355;DHT22;3210;48.708;9.030;2023-05-10T13:47:05;16.70;1.00
6355;DHT22;3210;48.708;9.030;2023-05-10T13:49:32;16.90;1.00
6355;DHT22;3210;48.708;9.030;2023-05-10T13:51:59;16.90;1.00
6355;DHT22;3210;48.708;9.030;2023-05-10T13:54:31;16.90;1.00
6355;DHT22;3210;48.708;9.030;2023-05-10T13:56:59;16.80;1.00
6355;DHT22;3210;48.708;9.030;2023-05-10T13:59:26;17.00;1.00
6355;DHT22;3210;48.708;9.030;2023-05-10T14:01:53;16.90;1.00
6355;DHT22;3210;48.708;9.030;2023-05-10T14:04:19;16.60;1.00
6355;DHT22;3210;48.708;9.030;2023-05-10T14:06:46;16.50;1.00
6355;DHT22;3210;48.708;9.030;2023-05-10T14:09:13;16.50;1.00
6355;DHT22;3210;48.708;9.030;2023-05-10T14:11:40;16.50;1.00
6355;DHT22;3210;48.708;9.030;2023-05-10T14:14:10;16.40;1.00
6355;DHT22;3210;48.708;9.030;2023-05-10T14:16:36;16.50;1.00
6355;DHT22;3210;48.708;9.030;2023-05-10T14:19:03;16.40;1.00
6355;DHT22;3210;48.708;9.030;2023-05-10T14:21:30;16.40;1.00
6355;DHT22;3210;48.708;9.030;2023-05-10T14:23:57;16.50;1.00
6355;DHT22;3210;48.708;9.030;2023-05-10T14:26:23;16.60;1.00
6355;DHT22;3210;48.708;9.030;2023-05-10T14:28:51;16.80;1.00
6355;DHT22;3210;48.708;9.030;2023-05-10T14:31:19;16.80;1.00
6355;DHT22;3210;48.708;9.030;2023-05-10T14:33:46;16.90;1.00
6355;DHT22;3210;48.708;9.030;2023-05-10T14:36:13;16.90;1.00
6355;DHT22;3210;48.708;9.030;2023-05-10T14:38:40;16.80;1.00
6355;DHT22;3210;48.708;9.030;2023-05-10T14:41:07;16.80;1.00
6355;DHT22;3210;48.708;9.030;2023-05-10T14:43:33;16.60;1.00
6355;DHT22;3210;48.708;9.030;2023-05-10T14:46:01;16.60;1.00
6355;DHT22;3210;48.708;9.030;2023-05-10T14:48:29;16.60;1.00
6355;DHT22;3210;48.708;9.030;2023-05-10T14:50:56;16.70;1.00
6355;DHT22;3210;48.708;9.030;2023-05-10T14:53:23;16.80;1.00
6355;DHT22;3210;48.708;9.030;2023-05-10T14:55:50;16.80;1.00
6355;DHT22;3210;48.708;9.030;2023-05-10T14:58:17;16.50;1.00
6355;DHT22;3210;48.708;9.030;2023-05-10T15:00:44;16.40;1.00
6355;DHT22;3210;48.708;9.030;2023-05-10T15:03:11;16.20;1.00
6355;DHT22;3210;48.708;9.030;2023-05-10T15:05:39;16.40;1.00
6355;DHT22;3210;48.708;9.030;2023-05-10T15:08:06;16.50;1.00
6355;DHT22;3210;48.708;9.030;2023-05-10T15:10:34;16.60;1.00
6355;DHT22;3210;48.708;9.030;2023-05-10T15:13:03;16.70;1.00
6355;DHT22;3210;48.708;9.030;2023-05-10T15:15:30;16.50;1.00
6355;DHT22;3210;48.708;9.030;2023-05-10T15:17:57;16.40;1.00
6355;DHT22;3210;48.708;9.030;2023-05-10T15:20:23;16.40;1.00
6355;DHT22;3210;48.708;9.030;2023-05-10T15:22:51;16.30;1.00
6355;DHT22;3210;48.708;9.030;2023-05-10T15:25:19;16.40;1.00
6355;DHT22;3210;48.708;9.030;2023-05-10T15:27:46;16.40;1.00
6355;DHT22;3210;48.708;9.030;2023-05-10T15:30:13;16.30;1.00
6355;DHT22;3210;48.708;9.030;2023-05-10T15:32:40;16.20;1.00
6355;DHT22;3210;48.708;9.030;2023-05-10T15:35:07;16.20;1.00
6355;DHT22;3210;48.708;9.030;2023-05-10T15:37:34;16.20;1.00
6355;DHT22;3210;48.708;9.030;2023-05-10T15:40:03;16.20;1.00
6355;DHT22;3210;48.708;9.030;2023-05-10T15:42:30;16.30;1.00
6355;DHT22;3210;48.708;9.030;2023-05-10T15:44:57;16.50;1.00
6355;DHT22;3210;48.708;9.030;2023-05-10T15:47:25;16.50;1.00
6355;DHT22;3210;48.708;9.030;2023-05-10T15:49:52;16.30;1.00
6355;DHT22;3210;48.708;9.030;2023-05-10T15:52:20;16.30;1.00
6355;DHT22;3210;48.708;9.030;2023-05-10T15:54:47;16.60;1.00
6355;DHT22;3210;48.708;9.030;2023-05-10T15:57:15;16.50;1.00
6355;DHT22;3210;48.708;9.030;2023-05-10T15:59:42;16.50;1.00
6355;DHT22;3210;48.708;9.030;2023-05-10T16:02:10;16.30;1.00
6355;DHT22;3210;48.708;9.030;2023-05-10T16:04:37;15.50;1.00
6355;DHT22;3210;48.708;9.030;2023-05-10T16:07:04;15.70;1.00
6355;DHT22;3210;48.708;9.030;2023-05-10T16:09:31;15.40;1.00
6355;DHT22;3210;48.708;9.030;2023-05-10T16:11:58;15.50;1.00
6355;DHT22;3210;48.708;9.030;2023-05-10T16:14:26;15.50;1.00
6355;DHT22;3210;48.708;9.030;2023-05-10T16:16:53;15.30;1.00
6355;DHT22;3210;48.708;9.030;2023-05-10T16:19:19;15.40;1.00
6355;DHT22;3210;48.708;9.030;2023-05-10T16:21:46;15.30;1.00
6355;DHT22;3210;48.708;9.030;2023-05-10T16:24:13;15.30;1.00